createdAt,value
2017-10-12T00:00:41.821Z,100864.22
2017-10-12T00:03:10.262Z,100866.23
2017-10-12T00:05:39.329Z,100859.38
2017-10-12T00:08:07.953Z,100859.77
2017-10-12T00:10:37.529Z,100844.10
2017-10-12T00:13:05.963Z,100836.53
2017-10-12T00:15:35.426Z,100841.53
2017-10-12T00:18:04.016Z,100841.80
2017-10-12T00:20:32.938Z,100830.91
2017-10-12T00:23:01.368Z,100824.27
2017-10-12T00:25:29.716Z,100821.41
2017-10-12T00:27:59.128Z,100801.94
2017-10-12T00:30:27.475Z,100816.47
2017-10-12T00:32:56.113Z,100807.41
2017-10-12T00:35:25.072Z,100798.84
2017-10-12T00:37:54.246Z,100803.17
2017-10-12T00:40:22.545Z,100809.64
2017-10-12T00:42:52.156Z,100797.72
2017-10-12T00:45:20.588Z,100802.95
2017-10-12T00:47:49.177Z,100796.23
2017-10-12T00:50:18.392Z,100790.81
2017-10-12T00:52:46.862Z,100784.48
2017-10-12T00:55:15.373Z,100778.64
2017-10-12T00:57:44.785Z,100778.98
2017-10-12T01:00:13.417Z,100769.17
2017-10-12T01:02:42.152Z,100769.53
2017-10-12T01:05:11.332Z,100759.48
2017-10-12T01:07:40.890Z,100762.97
2017-10-12T01:10:09.774Z,100754.91
2017-10-12T01:12:38.142Z,100753.36
2017-10-12T01:15:07.253Z,100749.67
2017-10-12T01:17:35.569Z,100747.80
2017-10-12T01:20:04.482Z,100740.78
2017-10-12T01:22:33.933Z,100741.61
2017-10-12T01:25:02.986Z,100736.61
2017-10-12T01:27:32.030Z,100750.91
2017-10-12T01:30:01.272Z,100734.19
2017-10-12T01:32:30.862Z,100734.08
2017-10-12T01:34:59.586Z,100732.30
2017-10-12T01:37:28.922Z,100729.11
2017-10-12T01:39:57.253Z,100733.38
2017-10-12T01:42:26.540Z,100737.95
2017-10-12T01:44:56.213Z,100739.43
2017-10-12T01:47:25.712Z,100740.99
2017-10-12T01:49:54.852Z,100735.08
2017-10-12T01:52:24.876Z,100740.64
2017-10-12T01:54:54.684Z,100739.16
2017-10-12T01:57:23.147Z,100726.61
2017-10-12T01:59:52.037Z,100730.28
2017-10-12T02:02:21.043Z,100725.53
2017-10-12T02:04:49.401Z,100719.52
2017-10-12T02:07:18.599Z,100714.94
2017-10-12T02:09:46.900Z,100724.28
2017-10-12T02:12:15.796Z,100715.05
2017-10-12T02:14:44.168Z,100714.63
2017-10-12T02:17:13.158Z,100721.30
2017-10-12T02:19:42.313Z,100729.68
2017-10-12T02:22:12.207Z,100727.02
2017-10-12T02:24:41.287Z,100725.86
2017-10-12T02:27:10.819Z,100727.70
2017-10-12T02:29:40.267Z,100731.73
2017-10-12T02:32:08.616Z,100739.95
2017-10-12T02:34:37.194Z,100735.34
2017-10-12T02:37:06.364Z,100723.09
2017-10-12T02:39:35.671Z,100733.00
2017-10-12T02:42:03.994Z,100730.61
2017-10-12T02:44:32.369Z,100727.73
2017-10-12T02:47:01.515Z,100728.65
2017-10-12T02:49:30.622Z,100737.65
2017-10-12T02:52:00.832Z,100737.77
2017-10-12T02:54:29.945Z,100740.05
2017-10-12T02:56:59.028Z,100734.33
2017-10-12T02:59:29.912Z,100734.17
2017-10-12T03:01:58.240Z,100736.31
2017-10-12T03:04:27.930Z,100735.56
2017-10-12T03:06:57.008Z,100740.73
2017-10-12T03:09:26.329Z,100744.97
2017-10-12T03:11:55.379Z,100739.00
2017-10-12T03:14:23.976Z,100741.97
2017-10-12T03:16:52.279Z,100731.77
2017-10-12T03:19:20.617Z,100737.30
2017-10-12T03:21:48.961Z,100726.19
2017-10-12T03:24:17.289Z,100729.98
2017-10-12T03:26:45.624Z,100720.88
2017-10-12T03:29:15.329Z,100733.67
2017-10-12T03:31:45.620Z,100745.33
2017-10-12T03:34:14.702Z,100735.56
2017-10-12T03:36:43.692Z,100733.45
2017-10-12T03:39:12.899Z,100724.32
2017-10-12T03:41:41.217Z,100738.84
2017-10-12T03:44:09.539Z,100735.44
2017-10-12T03:46:38.446Z,100733.19
2017-10-12T03:49:06.764Z,100734.11
2017-10-12T03:51:35.572Z,100730.77
2017-10-12T03:54:05.087Z,100739.06
2017-10-12T03:56:33.407Z,100734.51
2017-10-12T03:59:02.053Z,100733.17
2017-10-12T04:01:32.029Z,100730.87
2017-10-12T04:04:02.016Z,100738.04
2017-10-12T04:06:30.363Z,100744.80
2017-10-12T04:08:59.124Z,100750.14
2017-10-12T04:11:27.907Z,100751.05
2017-10-12T04:13:58.647Z,100745.73
2017-10-12T04:16:26.959Z,100753.91
2017-10-12T04:18:57.743Z,100746.91
2017-10-12T04:21:26.503Z,100741.19
2017-10-12T04:23:55.283Z,100753.95
2017-10-12T04:26:23.634Z,100760.23
2017-10-12T04:28:52.728Z,100764.36
2017-10-12T04:31:21.840Z,100764.31
2017-10-12T04:33:52.352Z,100769.30
2017-10-12T04:36:21.197Z,100770.47
2017-10-12T04:38:50.890Z,100764.59
2017-10-12T04:41:20.387Z,100771.83
2017-10-12T04:43:48.761Z,100768.66
2017-10-12T04:46:18.113Z,100770.51
2017-10-12T04:48:46.462Z,100772.02
2017-10-12T04:51:14.820Z,100772.84
2017-10-12T04:53:43.996Z,100772.18
2017-10-12T04:56:14.793Z,100765.13
2017-10-12T04:58:43.996Z,100772.73
2017-10-12T05:01:12.325Z,100774.88
2017-10-12T05:03:40.953Z,100783.13
2017-10-12T05:06:10.509Z,100785.89
2017-10-12T05:08:39.645Z,100792.44
2017-10-12T05:11:08.342Z,100798.03
2017-10-12T05:13:36.676Z,100793.00
2017-10-12T05:16:05.156Z,100797.23
2017-10-12T05:18:33.529Z,100791.50
2017-10-12T05:21:03.184Z,100802.53
2017-10-12T05:23:31.506Z,100796.98
2017-10-12T05:26:01.021Z,100806.92
2017-10-12T05:28:30.106Z,100822.42
2017-10-12T05:30:58.429Z,100808.97
2017-10-12T05:33:26.763Z,100821.61
2017-10-12T05:35:55.898Z,100815.20
2017-10-12T05:38:26.150Z,100825.44
2017-10-12T05:40:55.332Z,100831.10
2017-10-12T05:43:24.446Z,100833.96
2017-10-12T05:45:52.754Z,100838.38
2017-10-12T05:48:21.969Z,100832.46
2017-10-12T05:50:51.052Z,100845.17
2017-10-12T05:53:20.185Z,100838.61
2017-10-12T16:05:47.262Z,101704.58
2017-10-12T16:08:15.620Z,101705.75
2017-10-12T16:10:43.974Z,101700.02
2017-10-12T16:13:13.874Z,101706.66
2017-10-12T16:15:42.233Z,101710.91
2017-10-12T16:18:10.790Z,101706.56
2017-10-12T16:20:39.773Z,101717.31
2017-10-12T16:23:09.172Z,101715.66
2017-10-12T16:25:39.362Z,101718.11
2017-10-12T16:28:08.620Z,101719.97
2017-10-12T16:30:36.971Z,101716.91
2017-10-12T16:35:38.059Z,101724.98
2017-10-12T16:38:06.494Z,101722.39
2017-10-12T16:40:35.639Z,101723.62
2017-10-12T16:45:29.067Z,101734.70
2017-10-12T16:47:57.401Z,101732.93
2017-10-12T16:50:56.321Z,101745.57
2017-10-12T16:52:55.926Z,101747.16
2017-10-12T16:57:52.602Z,101750.69
2017-10-12T17:00:21.869Z,101755.06
2017-10-12T17:02:50.221Z,101763.86
2017-10-12T17:05:18.631Z,101760.88
2017-10-12T17:07:47.876Z,101767.36
2017-10-12T17:10:17.892Z,101756.61
2017-10-12T17:12:46.649Z,101758.14
2017-10-12T17:15:15.053Z,101764.45
2017-10-12T17:17:46.362Z,101766.59
2017-10-12T17:20:14.807Z,101767.36
2017-10-12T17:22:43.968Z,101770.00
2017-10-12T17:25:12.327Z,101775.63
2017-10-12T17:27:40.673Z,101772.05
2017-10-12T17:30:09.342Z,101778.19
2017-10-12T17:32:38.455Z,101784.33
2017-10-12T17:35:07.233Z,101780.78
2017-10-12T17:37:35.605Z,101786.02
2017-10-12T17:40:04.927Z,101788.11
2017-10-12T17:42:34.063Z,101779.88
2017-10-12T17:45:02.696Z,101792.05
2017-10-12T17:47:31.059Z,101789.66
2017-10-12T17:50:02.039Z,101788.47
2017-10-12T17:52:30.630Z,101788.69
2017-10-12T17:54:59.764Z,101791.91
2017-10-12T17:57:28.111Z,101791.94
2017-10-12T17:59:57.842Z,101788.78
2017-10-12T18:02:26.982Z,101800.95
2017-10-12T18:04:55.318Z,101793.31
2017-10-12T18:07:24.273Z,101796.98
2017-10-12T18:09:52.654Z,101795.33
2017-10-12T18:12:21.674Z,101799.27
2017-10-12T18:14:51.356Z,101798.64
2017-10-12T18:17:20.556Z,101799.33
2017-10-12T18:19:49.027Z,101800.87
2017-10-12T18:22:22.062Z,101804.49
2017-10-12T18:24:50.459Z,101809.62
2017-10-12T18:27:19.572Z,101812.91
2017-10-12T18:29:48.738Z,101812.58
2017-10-12T18:32:17.862Z,101817.62
2017-10-12T18:34:46.853Z,101809.84
2017-10-12T18:37:16.052Z,101819.84
2017-10-12T18:39:47.004Z,101821.23
2017-10-12T18:42:15.339Z,101823.44
2017-10-12T18:44:44.293Z,101834.81
2017-10-12T18:47:12.680Z,101838.30
2017-10-12T18:49:42.367Z,101834.92
2017-10-12T18:52:10.741Z,101839.61
2017-10-12T18:54:40.553Z,101839.14
2017-10-12T18:57:08.942Z,101844.95
2017-10-12T18:59:38.556Z,101850.41
2017-10-12T19:02:07.183Z,101856.29
2017-10-12T19:04:35.937Z,101855.66
2017-10-12T19:07:05.107Z,101853.05
2017-10-12T19:09:35.015Z,101857.52
2017-10-12T19:12:04.710Z,101857.86
2017-10-12T19:14:33.096Z,101857.02
2017-10-12T19:17:02.161Z,101862.45
2017-10-12T19:19:31.409Z,101863.85
2017-10-12T19:22:00.781Z,101866.60
2017-10-12T19:24:29.998Z,101873.69
2017-10-12T19:26:59.548Z,101872.20
2017-10-12T19:29:28.307Z,101868.63
2017-10-12T19:31:57.664Z,101878.77
2017-10-12T19:34:26.234Z,101880.55
2017-10-12T19:36:54.630Z,101878.07
2017-10-12T19:39:23.650Z,101875.82
2017-10-12T19:41:53.674Z,101879.88
2017-10-12T19:44:24.298Z,101873.73
2017-10-12T19:46:53.620Z,101877.41
2017-10-12T19:49:22.296Z,101887.89
2017-10-12T19:51:51.451Z,101889.81
2017-10-12T19:54:19.796Z,101893.00
2017-10-12T19:56:48.166Z,101884.94
2017-10-12T19:59:16.545Z,101887.07
2017-10-12T20:01:44.912Z,101893.39
2017-10-12T20:04:13.735Z,101890.61
2017-10-12T20:06:42.400Z,101892.33
2017-10-12T20:09:10.789Z,101888.94
2017-10-12T20:11:39.145Z,101899.32
2017-10-12T20:16:38.569Z,101899.16
2017-10-12T20:19:07.721Z,101906.62
2017-10-12T20:21:36.106Z,101907.57
2017-10-12T20:26:34.510Z,101905.94
2017-10-12T20:31:32.784Z,101914.16
2017-10-12T20:34:01.202Z,101903.59
2017-10-12T20:36:29.593Z,101907.36
2017-10-12T20:38:57.945Z,101906.80
2017-10-12T20:41:27.993Z,101903.92
2017-10-12T20:43:56.366Z,101915.47
2017-10-12T20:46:25.512Z,101914.56
2017-10-12T20:48:53.920Z,101898.66
2017-10-12T20:51:22.852Z,101909.41
2017-10-12T20:53:51.915Z,101905.70
2017-10-12T20:56:20.292Z,101900.49
2017-10-12T20:58:50.035Z,101909.36
2017-10-12T21:01:19.119Z,101909.50
2017-10-12T21:03:47.505Z,101911.73
2017-10-12T21:06:15.962Z,101921.23
2017-10-12T21:08:44.722Z,101917.57
2017-10-12T21:11:13.107Z,101909.59
2017-10-12T21:13:42.892Z,101912.13
2017-10-12T21:16:12.002Z,101917.28
2017-10-12T21:18:40.388Z,101912.06
2017-10-12T21:21:08.794Z,101908.87
2017-10-12T21:23:37.160Z,101900.22
2017-10-12T21:26:06.195Z,101900.78
2017-10-12T21:28:36.034Z,101899.74
2017-10-12T21:31:04.852Z,101900.29
2017-10-12T21:33:33.611Z,101898.45
2017-10-12T21:36:03.512Z,101888.69
2017-10-12T21:38:32.645Z,101884.83
2017-10-12T21:41:01.193Z,101896.06
2017-10-12T21:43:29.587Z,101900.69
2017-10-12T21:45:57.993Z,101896.02
2017-10-12T21:48:26.364Z,101896.97
2017-10-12T21:50:54.774Z,101905.09
2017-10-12T21:53:23.153Z,101894.50
2017-10-12T21:55:52.429Z,101903.98
2017-10-12T21:58:21.998Z,101912.72
2017-10-12T22:00:51.258Z,101911.71
2017-10-12T22:03:20.441Z,101906.59
2017-10-12T22:05:49.745Z,101912.64
2017-10-12T22:08:18.122Z,101906.50
2017-10-12T22:10:47.251Z,101917.77
2017-10-12T22:13:17.409Z,101917.20
2017-10-12T22:15:46.122Z,101903.95
2017-10-12T22:18:14.763Z,101907.33
2017-10-12T22:20:44.307Z,101905.73
2017-10-12T22:23:14.057Z,101910.00
2017-10-12T22:25:44.659Z,101909.38
2017-10-12T22:28:13.866Z,101908.29
2017-10-12T22:30:42.254Z,101915.23
2017-10-12T22:33:11.459Z,101913.06
2017-10-12T22:35:40.626Z,101911.41
2017-10-12T22:38:08.995Z,101915.61
2017-10-12T22:40:40.265Z,101914.25
2017-10-12T22:43:08.937Z,101914.69
2017-10-12T22:45:38.292Z,101915.56
2017-10-12T22:48:07.541Z,101910.17
2017-10-12T22:50:36.447Z,101913.09
2017-10-12T22:53:05.701Z,101912.67
2017-10-12T22:55:34.337Z,101905.30
2017-10-12T22:58:03.419Z,101899.14
2017-10-12T23:00:32.210Z,101905.13
2017-10-12T23:03:00.849Z,101901.64
2017-10-12T23:05:31.000Z,101903.91
2017-10-12T23:07:59.652Z,101899.30
2017-10-12T23:10:29.346Z,101900.30
2017-10-12T23:12:58.538Z,101899.84
2017-10-12T23:15:26.915Z,101900.54
2017-10-12T23:17:56.248Z,101902.06
2017-10-12T23:20:25.917Z,101900.12
2017-10-12T23:22:54.302Z,101912.52
2017-10-12T23:25:22.694Z,101910.12
2017-10-12T23:27:53.860Z,101909.59
2017-10-12T23:30:23.808Z,101911.66
2017-10-12T23:32:54.036Z,101912.09
2017-10-12T23:35:23.497Z,101907.18
2017-10-12T23:37:52.635Z,101908.48
2017-10-12T23:40:21.920Z,101908.37
2017-10-12T23:42:51.243Z,101906.25
2017-10-12T23:45:19.885Z,101914.76
2017-10-12T23:47:49.909Z,101913.98
2017-10-12T23:50:18.402Z,101924.42
2017-10-12T23:52:46.809Z,101922.78
2017-10-12T23:55:15.895Z,101937.90
2017-10-12T23:57:45.201Z,101938.95
